Time;durP1;ratioP1;P1;durP2;ratioP2;P2;SDS_P1;SDS_P2;PMS_P1;PMS_P2;Temp;Humidity;BMP_temperature;BMP_pressure;BME280_temperature;BME280_humidity;BME280_pressure;Samples;Min_cycle;Max_cycle;Signal;HPM_P1;HPM_P2
2023/09/30 00:01:29;;;;;;;29.02;8.68;;;;;16.60;97014.00;;;;8286240;28;20221;-68
2023/09/30 00:05:32;;;;;;;31.85;9.48;;;;;16.40;97010.00;;;;8287299;28;20547;-68
2023/09/30 00:09:35;;;;;;;28.85;10.25;;;;;16.30;97009.00;;;;8287297;28;20289;-68
2023/09/30 00:13:40;;;;;;;25.65;8.82;;;;;16.20;97015.00;;;;8270764;28;20202;-69
2023/09/30 00:17:43;;;;;;;26.50;9.35;;;;;16.10;97014.00;;;;8279073;28;20368;-69
2023/09/30 00:21:46;;;;;;;31.52;9.23;;;;;16.00;97011.00;;;;8285978;28;20230;-69
2023/09/30 00:25:50;;;;;;;21.65;8.75;;;;;15.90;97018.00;;;;8284665;28;20210;-69
2023/09/30 00:29:55;;;;;;;26.30;8.30;;;;;15.70;97022.00;;;;8286335;28;20194;-69
2023/09/30 00:33:58;;;;;;;28.83;8.60;;;;;15.60;97029.00;;;;8284435;28;20206;-68
2023/09/30 00:38:02;;;;;;;31.85;9.23;;;;;15.60;97026.00;;;;8286334;28;20198;-69
2023/09/30 00:42:05;;;;;;;28.58;8.15;;;;;15.50;97021.00;;;;8285350;28;20226;-69
2023/09/30 00:46:17;;;;;;;21.08;6.40;;;;;15.50;97023.00;;;;8282923;28;20782;-69
2023/09/30 00:50:22;;;;;;;17.40;6.38;;;;;15.60;97014.00;;;;8282465;28;20256;-69
2023/09/30 00:54:27;;;;;;;20.33;6.43;;;;;15.70;97011.00;;;;8286603;28;20803;-69
2023/09/30 00:58:31;;;;;;;19.70;6.78;;;;;15.70;97021.00;;;;8284715;28;20296;-69
2023/09/30 01:02:37;;;;;;;16.45;6.05;;;;;15.70;97023.00;;;;8285346;28;20333;-69
2023/09/30 01:06:40;;;;;;;18.50;6.40;;;;;15.60;97028.00;;;;8285325;28;20202;-68
2023/09/30 01:10:44;;;;;;;16.58;6.18;;;;;15.60;97027.00;;;;8285691;28;20213;-68
2023/09/30 01:14:47;;;;;;;16.77;5.70;;;;;15.50;97027.00;;;;8284508;28;20202;-68
2023/09/30 01:18:52;;;;;;;19.42;6.28;;;;;15.40;97026.00;;;;8284116;28;21021;-68
2023/09/30 01:22:58;;;;;;;17.00;5.90;;;;;15.30;97022.00;;;;8284047;28;20236;-68
2023/09/30 01:27:02;;;;;;;22.17;7.72;;;;;15.20;97016.00;;;;8285806;28;20281;-68
2023/09/30 01:31:05;;;;;;;17.50;5.80;;;;;15.10;97013.00;;;;8283894;28;20622;-68
2023/09/30 01:35:09;;;;;;;18.13;6.88;;;;;15.00;97021.00;;;;8283932;28;20202;-69
2023/09/30 01:39:14;;;;;;;18.85;6.10;;;;;14.90;97026.00;;;;8280521;28;20278;-68
2023/09/30 01:43:17;;;;;;;20.58;6.32;;;;;14.90;97020.00;;;;8283789;28;20230;-68
2023/09/30 01:47:20;;;;;;;17.80;6.13;;;;;15.00;97026.00;;;;8281618;28;20820;-68
2023/09/30 01:51:24;;;;;;;17.70;6.20;;;;;15.10;97011.00;;;;8284073;28;20206;-68
2023/09/30 01:55:28;;;;;;;18.00;5.57;;;;;15.20;97015.00;;;;8279347;28;20194;-68
2023/09/30 01:59:31;;;;;;;18.10;6.20;;;;;15.20;97017.00;;;;8281685;28;20194;-68
2023/09/30 02:03:34;;;;;;;17.15;6.55;;;;;15.20;97035.00;;;;8281557;28;20269;-68
2023/09/30 02:07:40;;;;;;;20.27;5.53;;;;;15.30;97033.00;;;;8283435;28;20929;-68
2023/09/30 02:11:45;;;;;;;17.48;6.38;;;;;15.40;97027.00;;;;8282179;28;20285;-68
2023/09/30 02:15:48;;;;;;;15.02;6.10;;;;;15.50;97018.00;;;;8282144;28;20201;-68
2023/09/30 02:19:53;;;;;;;22.60;6.57;;;;;15.50;97019.00;;;;8283315;28;20304;-69
2023/09/30 02:23:56;;;;;;;23.60;6.15;;;;;15.50;97010.00;;;;8281886;28;20300;-68
2023/09/30 02:28:01;;;;;;;14.57;5.65;;;;;15.50;97029.00;;;;8282262;28;20305;-68
2023/09/30 02:32:04;;;;;;;17.55;6.22;;;;;15.50;97031.00;;;;8282351;28;20284;-68
2023/09/30 02:36:08;;;;;;;20.23;6.40;;;;;15.50;97025.00;;;;8282143;28;20281;-68
2023/09/30 02:40:14;;;;;;;20.55;6.20;;;;;15.40;97025.00;;;;8281585;28;20202;-68
2023/09/30 02:44:19;;;;;;;13.82;5.72;;;;;15.40;97041.00;;;;8281786;28;20296;-68
2023/09/30 02:48:22;;;;;;;15.82;5.75;;;;;15.30;97043.00;;;;8280047;28;20209;-68
2023/09/30 02:52:26;;;;;;;20.55;5.80;;;;;15.20;97038.00;;;;8282116;28;20198;-68
2023/09/30 02:56:30;;;;;;;17.85;5.55;;;;;15.20;97039.00;;;;8283140;28;20585;-68
2023/09/30 03:00:35;;;;;;;18.00;8.10;;;;;15.20;97047.00;;;;8280785;28;20285;-68
2023/09/30 03:04:38;;;;;;;15.85;5.30;;;;;15.30;97040.00;;;;8296867;22;20283;-68
2023/09/30 03:08:41;;;;;;;15.65;5.97;;;;;15.40;97037.00;;;;8269385;28;20204;-68
2023/09/30 03:12:45;;;;;;;14.55;5.85;;;;;15.50;97035.00;;;;8267945;28;20202;-68
2023/09/30 03:16:50;;;;;;;23.70;6.45;;;;;15.60;97025.00;;;;8264371;28;20229;-69
2023/09/30 03:20:56;;;;;;;16.63;6.03;;;;;15.60;97032.00;;;;8276581;28;20202;-68
2023/09/30 03:25:00;;;;;;;16.73;5.63;;;;;15.70;97041.00;;;;8277246;28;20232;-69
2023/09/30 03:29:05;;;;;;;17.08;6.40;;;;;15.60;97039.00;;;;8279702;28;20264;-68
2023/09/30 03:33:10;;;;;;;24.08;6.68;;;;;15.60;97041.00;;;;8281465;28;20237;-68
2023/09/30 03:37:13;;;;;;;16.83;5.95;;;;;15.60;97041.00;;;;8277064;28;20209;-68
2023/09/30 03:41:19;;;;;;;15.13;6.47;;;;;15.60;97038.00;;;;8275432;28;20253;-68
2023/09/30 03:45:22;;;;;;;16.55;6.05;;;;;15.60;97042.00;;;;8275842;28;20206;-69
2023/09/30 03:49:26;;;;;;;15.55;5.60;;;;;15.60;97041.00;;;;8276132;28;20690;-69
2023/09/30 03:53:29;;;;;;;15.95;5.70;;;;;15.60;97038.00;;;;8279541;28;20293;-68
2023/09/30 03:57:33;;;;;;;16.02;5.70;;;;;15.50;97039.00;;;;8285843;28;20228;-68
2023/09/30 04:01:39;;;;;;;19.23;7.13;;;;;15.50;97032.00;;;;8271727;28;20230;-68
2023/09/30 04:05:45;;;;;;;14.52;5.57;;;;;15.40;97036.00;;;;8230604;28;20257;-68
2023/09/30 04:09:48;;;;;;;16.52;6.40;;;;;15.30;97045.00;;;;8239683;28;20616;-68
2023/09/30 04:13:52;;;;;;;18.17;5.60;;;;;15.10;97045.00;;;;8244488;28;20221;-68
2023/09/30 04:17:55;;;;;;;16.23;5.85;;;;;15.00;97058.00;;;;8247513;28;20640;-68
2023/09/30 04:22:00;;;;;;;16.42;6.22;;;;;14.90;97045.00;;;;8255569;28;20254;-68
2023/09/30 04:26:03;;;;;;;21.10;6.75;;;;;14.80;97063.00;;;;8253857;28;20577;-68
2023/09/30 04:30:08;;;;;;;18.92;6.43;;;;;14.70;97065.00;;;;8243070;28;20576;-69
2023/09/30 04:34:13;;;;;;;16.13;6.05;;;;;14.70;97075.00;;;;8242878;28;20607;-69
2023/09/30 04:38:18;;;;;;;20.70;5.82;;;;;14.70;97076.00;;;;8241670;28;20762;-68
2023/09/30 04:42:21;;;;;;;20.23;6.93;;;;;14.80;97074.00;;;;8239696;28;20231;-68
2023/09/30 04:46:24;;;;;;;23.73;6.55;;;;;14.90;97086.00;;;;8239582;28;20206;-68
2023/09/30 04:50:27;;;;;;;17.88;6.88;;;;;14.90;97090.00;;;;8236577;28;20213;-69
2023/09/30 04:54:31;;;;;;;21.20;7.22;;;;;15.00;97089.00;;;;8231348;28;20682;-69
2023/09/30 04:58:34;;;;;;;21.02;6.90;;;;;15.10;97083.00;;;;8250685;28;20297;-69
2023/09/30 05:02:37;;;;;;;19.85;7.40;;;;;15.00;97086.00;;;;8250433;28;20587;-69
2023/09/30 05:06:41;;;;;;;23.30;6.68;;;;;15.00;97093.00;;;;8246753;28;20210;-69
2023/09/30 05:10:45;;;;;;;21.77;6.63;;;;;15.00;97096.00;;;;8247427;28;20207;-70
2023/09/30 05:14:49;;;;;;;22.90;7.47;;;;;14.90;97094.00;;;;8250709;28;20199;-68
2023/09/30 05:18:52;;;;;;;25.60;7.32;;;;;14.90;97097.00;;;;8248567;28;20206;-67
2023/09/30 05:22:55;;;;;;;19.73;7.03;;;;;14.90;97101.00;;;;8247758;28;20258;-69
2023/09/30 05:27:00;;;;;;;26.65;7.63;;;;;14.90;97091.00;;;;8257290;28;20198;-68
2023/09/30 05:31:03;;;;;;;24.35;7.53;;;;;15.10;97098.00;;;;8248276;28;20210;-69
2023/09/30 05:35:12;;;;;;;19.38;6.95;;;;;15.20;97092.00;;;;8257425;28;20191;-69
2023/09/30 05:39:19;;;;;;;22.95;7.38;;;;;15.30;97099.00;;;;8246065;28;20564;-68
2023/09/30 05:43:24;;;;;;;23.02;7.90;;;;;15.30;97102.00;;;;8249810;28;20222;-68
2023/09/30 05:47:27;;;;;;;24.60;7.25;;;;;15.40;97099.00;;;;8252528;28;20191;-67
2023/09/30 05:51:30;;;;;;;25.48;8.07;;;;;15.50;97108.00;;;;8246435;28;20848;-67
2023/09/30 05:55:34;;;;;;;25.83;7.43;;;;;15.60;97103.00;;;;8232110;28;20919;-69
2023/09/30 05:59:38;;;;;;;35.35;7.90;;;;;15.70;97102.00;;;;8225005;28;20206;-69
2023/09/30 06:03:41;;;;;;;30.67;6.80;;;;;15.90;97113.00;;;;8235715;28;20226;-68
2023/09/30 06:07:45;;;;;;;26.05;7.55;;;;;16.00;97114.00;;;;8247104;28;20221;-68
2023/09/30 06:11:48;;;;;;;24.70;7.90;;;;;16.10;97138.00;;;;8254519;28;20599;-69
2023/09/30 06:15:52;;;;;;;23.45;7.18;;;;;16.30;97140.00;;;;8239026;28;20195;-69
2023/09/30 06:19:56;;;;;;;18.58;6.90;;;;;16.40;97132.00;;;;8234460;28;20211;-69
2023/09/30 06:23:59;;;;;;;14.23;6.15;;;;;16.50;97132.00;;;;8239733;28;20345;-69
2023/09/30 06:28:03;;;;;;;21.77;6.95;;;;;16.60;97135.00;;;;8233210;28;20290;-69
2023/09/30 06:32:08;;;;;;;15.65;5.35;;;;;16.60;97142.00;;;;8240157;28;20203;-69
2023/09/30 06:36:13;;;;;;;13.98;4.72;;;;;16.70;97139.00;;;;8242735;28;20658;-68
2023/09/30 06:40:17;;;;;;;12.85;4.57;;;;;16.70;97138.00;;;;8246595;28;20195;-70
2023/09/30 06:44:20;;;;;;;9.63;4.25;;;;;16.80;97140.00;;;;8240845;28;20233;-69
2023/09/30 06:48:25;;;;;;;9.48;4.60;;;;;16.90;97142.00;;;;8242778;28;20203;-68
2023/09/30 06:52:28;;;;;;;8.88;3.40;;;;;16.90;97141.00;;;;8238738;28;20201;-68
2023/09/30 06:56:32;;;;;;;6.05;3.05;;;;;17.00;97152.00;;;;8239052;28;20238;-70
2023/09/30 07:00:35;;;;;;;2.35;2.15;;;;;17.10;97169.00;;;;8239017;28;20690;-68
2023/09/30 07:04:39;;;;;;;3.10;1.92;;;;;17.00;97178.00;;;;8240757;28;20226;-68
2023/09/30 07:08:43;;;;;;;2.30;2.10;;;;;17.00;97179.00;;;;8244645;28;20210;-69
2023/09/30 07:12:46;;;;;;;2.20;1.80;;;;;17.00;97183.00;;;;8243608;28;20241;-70
2023/09/30 07:16:49;;;;;;;1.88;1.50;;;;;17.10;97191.00;;;;8233449;28;20203;-70
2023/09/30 07:20:54;;;;;;;2.72;1.95;;;;;17.20;97193.00;;;;8236312;28;20203;-70
2023/09/30 07:24:57;;;;;;;6.40;2.05;;;;;17.20;97195.00;;;;8251937;28;20238;-71
2023/09/30 07:29:00;;;;;;;2.00;1.63;;;;;17.30;97213.00;;;;8246741;28;20209;-70
2023/09/30 07:33:04;;;;;;;1.92;1.80;;;;;17.40;97216.00;;;;8247372;28;20206;-70
2023/09/30 07:37:09;;;;;;;1.75;1.58;;;;;17.30;97216.00;;;;8245688;28;20313;-70
2023/09/30 07:41:12;;;;;;;1.88;1.60;;;;;17.30;97217.00;;;;8245888;28;20208;-72
2023/09/30 07:45:16;;;;;;;1.52;1.42;;;;;17.40;97222.00;;;;8249374;28;20317;-68
2023/09/30 07:49:20;;;;;;;1.60;1.50;;;;;17.60;97223.00;;;;8244066;28;20294;-68
2023/09/30 07:53:24;;;;;;;2.60;1.55;;;;;17.80;97219.00;;;;8247569;28;20198;-68
2023/09/30 07:57:27;;;;;;;1.60;1.50;;;;;17.80;97232.00;;;;8254281;28;20210;-68
2023/09/30 08:01:31;;;;;;;1.58;1.27;;;;;17.80;97227.00;;;;8239143;28;20655;-68
2023/09/30 08:05:34;;;;;;;1.90;1.42;;;;;17.90;97237.00;;;;8244893;28;20244;-68
2023/09/30 08:09:38;;;;;;;1.77;1.15;;;;;18.00;97245.00;;;;8249667;28;20207;-68
2023/09/30 08:13:42;;;;;;;1.23;1.23;;;;;18.00;97246.00;;;;8251397;28;20206;-68
2023/09/30 08:17:45;;;;;;;1.20;1.10;;;;;18.00;97254.00;;;;8245012;28;20198;-68
2023/09/30 08:21:48;;;;;;;1.40;1.30;;;;;18.10;97255.00;;;;8241839;28;20206;-68
2023/09/30 08:25:54;;;;;;;1.00;1.00;;;;;18.10;97262.00;;;;8255179;28;20282;-68
2023/09/30 08:29:57;;;;;;;0.98;0.95;;;;;18.10;97245.00;;;;8253811;28;20203;-68
2023/09/30 08:34:01;;;;;;;0.85;0.85;;;;;18.30;97247.00;;;;8252115;28;20215;-67
2023/09/30 08:38:05;;;;;;;0.90;0.90;;;;;18.80;97260.00;;;;8247236;28;20203;-67
2023/09/30 08:42:12;;;;;;;0.80;0.80;;;;;19.30;97257.00;;;;8241581;28;20849;-68
2023/09/30 08:46:16;;;;;;;0.95;0.90;;;;;19.50;97259.00;;;;8247522;28;20226;-69
2023/09/30 08:50:21;;;;;;;0.70;0.70;;;;;19.80;97276.00;;;;8248085;28;20224;-69
2023/09/30 08:54:26;;;;;;;0.85;0.85;;;;;20.00;97278.00;;;;8243247;28;20206;-69
2023/09/30 08:58:32;;;;;;;1.13;0.93;;;;;20.10;97283.00;;;;8248618;28;20637;-69
2023/09/30 09:02:35;;;;;;;0.80;0.80;;;;;20.10;97278.00;;;;8252401;28;20241;-69
2023/09/30 09:06:39;;;;;;;0.80;0.80;;;;;20.10;97279.00;;;;8241720;28;20226;-72
2023/09/30 09:10:55;;;;;;;0.90;0.90;;;;;20.30;97282.00;;;;8249752;28;20198;-72
2023/09/30 09:14:59;;;;;;;1.15;1.10;;;;;20.40;97277.00;;;;8237828;28;20210;-71
2023/09/30 09:19:14;;;;;;;1.02;1.00;;;;;20.70;97277.00;;;;8226453;28;20212;-71
2023/09/30 09:23:17;;;;;;;0.98;0.98;;;;;20.60;97275.00;;;;8235490;28;20234;-71
2023/09/30 09:27:22;;;;;;;1.23;1.10;;;;;20.60;97272.00;;;;8233497;28;20273;-71
2023/09/30 09:31:28;;;;;;;1.70;1.35;;;;;20.60;97283.00;;;;8240051;28;20286;-71
2023/09/30 09:35:34;;;;;;;1.25;1.23;;;;;20.90;97281.00;;;;8240680;28;20195;-69
2023/09/30 09:39:37;;;;;;;1.90;1.70;;;;;21.50;97273.00;;;;8236524;28;20689;-70
2023/09/30 09:43:43;;;;;;;2.55;1.75;;;;;22.00;97281.00;;;;8241609;28;20203;-71
2023/09/30 09:47:48;;;;;;;3.78;1.98;;;;;22.00;97276.00;;;;8238442;28;20282;-70
2023/09/30 09:51:52;;;;;;;2.53;1.88;;;;;22.00;97262.00;;;;8238399;28;20207;-69
2023/09/30 09:55:57;;;;;;;3.03;1.90;;;;;21.80;97257.00;;;;8248751;28;20281;-70
2023/09/30 10:00:05;;;;;;;4.07;1.95;;;;;21.90;97261.00;;;;8249418;28;20209;-71
2023/09/30 10:04:13;;;;;;;3.10;2.03;;;;;22.10;97256.00;;;;8250725;28;20273;-70
2023/09/30 10:08:19;;;;;;;2.50;2.22;;;;;22.50;97261.00;;;;8250629;28;20218;-71
2023/09/30 10:12:23;;;;;;;3.45;2.50;;;;;22.60;97270.00;;;;8246443;28;20195;-69
2023/09/30 10:16:48;;;;;;;3.80;2.13;;;;;22.30;97274.00;;;;8239374;28;20208;-70
2023/09/30 10:21:09;;;;;;;4.60;2.42;;;;;22.30;97278.00;;;;8227924;28;20219;-73
2023/09/30 10:25:36;;;;;;;5.55;2.88;;;;;22.50;97272.00;;;;8236853;28;20585;-69
2023/09/30 10:29:42;;;;;;;4.22;2.65;;;;;22.40;97267.00;;;;8233074;28;20696;-71
2023/09/30 10:34:23;;;;;;;6.72;2.65;;;;;22.30;97267.00;;;;8237826;28;20203;-70
2023/09/30 10:38:41;;;;;;;3.13;2.40;;;;;22.40;97266.00;;;;8225955;28;20199;-69
2023/09/30 10:42:49;;;;;;;4.07;2.80;;;;;22.40;97263.00;;;;8238194;28;20230;-70
2023/09/30 10:46:53;;;;;;;4.07;2.58;;;;;22.40;97273.00;;;;8238865;28;20267;-70
2023/09/30 10:50:58;;;;;;;6.85;3.40;;;;;22.60;97275.00;;;;8226197;28;20203;-70
2023/09/30 10:55:07;;;;;;;6.75;3.13;;;;;22.60;97290.00;;;;8233965;28;20215;-70
2023/09/30 10:59:10;;;;;;;7.00;3.00;;;;;22.50;97294.00;;;;8223855;28;20273;-70
2023/09/30 11:03:16;;;;;;;6.38;3.47;;;;;22.50;97296.00;;;;8230329;28;21170;-70
2023/09/30 11:07:25;;;;;;;7.85;3.45;;;;;22.50;97298.00;;;;8228524;28;20265;-69
2023/09/30 11:11:38;;;;;;;5.63;3.15;;;;;22.70;97305.00;;;;8244780;28;20221;-69
2023/09/30 11:15:41;;;;;;;6.38;3.30;;;;;22.90;97305.00;;;;8240979;28;20209;-70
2023/09/30 11:19:50;;;;;;;7.47;3.60;;;;;22.90;97295.00;;;;8242214;28;20203;-70
2023/09/30 11:23:54;;;;;;;7.43;3.40;;;;;23.00;97292.00;;;;8252711;28;20342;-69
2023/09/30 11:28:16;;;;;;;9.00;3.60;;;;;22.80;97286.00;;;;8244829;28;20254;-70
2023/09/30 11:32:26;;;;;;;9.63;3.63;;;;;22.70;97282.00;;;;8246542;28;20997;-70
2023/09/30 11:36:31;;;;;;;7.47;3.80;;;;;22.60;97275.00;;;;8246846;28;20739;-70
2023/09/30 11:40:34;;;;;;;5.30;3.30;;;;;22.70;97281.00;;;;8236164;28;20205;-70
2023/09/30 11:44:46;;;;;;;8.50;4.38;;;;;22.90;97276.00;;;;8236513;28;20227;-69
2023/09/30 11:48:58;;;;;;;8.57;4.13;;;;;23.10;97273.00;;;;8234721;28;20234;-70
2023/09/30 11:53:01;;;;;;;10.07;4.35;;;;;23.10;97270.00;;;;8241514;28;20298;-69
2023/09/30 11:57:09;;;;;;;11.52;4.60;;;;;23.00;97268.00;;;;8233934;28;20648;-70
2023/09/30 12:01:14;;;;;;;9.88;3.80;;;;;22.70;97274.00;;;;8240325;28;20203;-70
2023/09/30 12:05:17;;;;;;;8.43;3.55;;;;;22.50;97263.00;;;;8238764;28;20230;-70
2023/09/30 12:09:25;;;;;;;8.05;3.35;;;;;22.40;97262.00;;;;8246067;28;20203;-69
2023/09/30 12:13:28;;;;;;;9.25;3.70;;;;;22.30;97265.00;;;;8242229;28;20623;-70
2023/09/30 12:17:33;;;;;;;8.63;3.45;;;;;22.10;97271.00;;;;8250583;28;20207;-69
2023/09/30 12:21:36;;;;;;;8.45;4.05;;;;;22.10;97270.00;;;;8245230;28;20272;-69
2023/09/30 12:25:39;;;;;;;8.70;3.95;;;;;22.30;97273.00;;;;8241249;28;20236;-69
2023/09/30 12:29:43;;;;;;;7.60;3.88;;;;;22.40;97264.00;;;;8240515;28;20241;-68
2023/09/30 12:33:51;;;;;;;10.43;4.40;;;;;22.50;97270.00;;;;8240286;28;20202;-69
2023/09/30 12:37:54;;;;;;;6.97;3.50;;;;;22.70;97267.00;;;;8243401;28;20199;-69
2023/09/30 12:41:57;;;;;;;10.77;4.63;;;;;23.00;97263.00;;;;8243618;28;20241;-69
2023/09/30 12:46:00;;;;;;;7.53;4.20;;;;;23.30;97259.00;;;;8247618;28;20466;-69
2023/09/30 12:50:08;;;;;;;9.85;3.75;;;;;23.40;97257.00;;;;8243327;28;20203;-69
2023/09/30 12:54:17;;;;;;;10.38;4.18;;;;;23.50;97257.00;;;;8249284;28;20210;-71
2023/09/30 12:58:21;;;;;;;11.68;4.43;;;;;23.60;97247.00;;;;8241752;28;20445;-70
2023/09/30 13:02:24;;;;;;;12.60;4.72;;;;;23.40;97239.00;;;;8239014;28;20716;-69
2023/09/30 13:06:29;;;;;;;10.32;4.22;;;;;23.20;97243.00;;;;8251797;28;20233;-70
2023/09/30 13:10:37;;;;;;;9.52;3.92;;;;;23.20;97245.00;;;;8246818;28;20199;-70
2023/09/30 13:14:42;;;;;;;12.10;5.22;;;;;23.00;97256.00;;;;8242801;28;20245;-70
2023/09/30 13:18:45;;;;;;;10.77;4.13;;;;;22.90;97247.00;;;;8241316;28;20221;-70
2023/09/30 13:22:50;;;;;;;10.55;4.60;;;;;23.10;97253.00;;;;8249060;28;20222;-70
2023/09/30 13:26:54;;;;;;;9.05;4.30;;;;;23.30;97260.00;;;;8250354;28;20235;-70
2023/09/30 13:30:57;;;;;;;10.02;4.25;;;;;23.30;97243.00;;;;8240717;28;20656;-72
2023/09/30 13:35:00;;;;;;;7.53;4.25;;;;;23.30;97244.00;;;;8242347;28;20240;-70
2023/09/30 13:39:05;;;;;;;8.13;4.53;;;;;23.20;97249.00;;;;8227084;28;20954;-70
2023/09/30 13:43:09;;;;;;;6.85;4.13;;;;;23.10;97248.00;;;;8224138;28;20202;-70
2023/09/30 13:47:12;;;;;;;7.93;3.95;;;;;23.20;97237.00;;;;8232855;28;20671;-70
2023/09/30 13:51:15;;;;;;;7.70;4.32;;;;;23.00;97239.00;;;;8239110;28;20295;-70
2023/09/30 13:55:20;;;;;;;9.63;4.55;;;;;23.00;97224.00;;;;8251956;28;20199;-70
2023/09/30 13:59:23;;;;;;;11.90;4.75;;;;;23.00;97224.00;;;;8250942;28;20744;-70
2023/09/30 14:03:26;;;;;;;7.78;4.07;;;;;22.90;97222.00;;;;8249705;28;20265;-70
2023/09/30 14:07:30;;;;;;;15.05;5.25;;;;;22.80;97227.00;;;;8249722;28;20284;-70
2023/09/30 14:11:34;;;;;;;9.23;4.78;;;;;22.90;97212.00;;;;8233768;28;20240;-70
2023/09/30 14:15:38;;;;;;;8.48;4.68;;;;;22.90;97210.00;;;;8245771;28;20203;-71
2023/09/30 14:19:41;;;;;;;10.65;4.93;;;;;23.00;97220.00;;;;8238946;28;20194;-70
2023/09/30 14:23:45;;;;;;;9.65;4.55;;;;;22.90;97223.00;;;;8250739;28;20203;-70
2023/09/30 14:27:49;;;;;;;11.13;4.65;;;;;23.00;97208.00;;;;8246328;28;20311;-70
2023/09/30 14:31:53;;;;;;;10.20;4.38;;;;;23.00;97211.00;;;;8231663;28;20207;-70
2023/09/30 14:35:56;;;;;;;12.98;4.80;;;;;22.80;97208.00;;;;8239076;28;20941;-70
2023/09/30 14:40:05;;;;;;;12.45;4.97;;;;;22.60;97212.00;;;;8245588;28;20930;-71
2023/09/30 14:44:11;;;;;;;11.07;5.20;;;;;22.60;97205.00;;;;8251723;28;20221;-71
2023/09/30 14:48:15;;;;;;;12.18;4.70;;;;;22.60;97208.00;;;;8240120;28;20237;-71
2023/09/30 14:52:19;;;;;;;11.30;5.20;;;;;22.60;97210.00;;;;8234365;28;20661;-70
2023/09/30 14:56:22;;;;;;;12.18;5.32;;;;;22.50;97213.00;;;;8237584;28;20207;-70
2023/09/30 15:00:27;;;;;;;11.20;4.93;;;;;22.30;97203.00;;;;8244486;28;20199;-70
2023/09/30 15:04:33;;;;;;;10.95;4.95;;;;;22.10;97210.00;;;;8247880;28;20227;-71
2023/09/30 15:08:36;;;;;;;13.00;5.32;;;;;21.90;97206.00;;;;8236302;28;20229;-71
2023/09/30 15:12:39;;;;;;;15.18;5.45;;;;;21.70;97207.00;;;;8221979;28;20200;-71
2023/09/30 15:16:44;;;;;;;12.88;5.70;;;;;21.50;97210.00;;;;8244281;28;20699;-69
2023/09/30 15:20:49;;;;;;;13.20;5.43;;;;;21.40;97212.00;;;;8248766;28;20678;-69
2023/09/30 15:24:53;;;;;;;10.48;5.00;;;;;21.20;97218.00;;;;8230334;28;20199;-69
2023/09/30 15:28:56;;;;;;;10.07;5.05;;;;;21.00;97224.00;;;;8242545;28;20230;-70
2023/09/30 15:33:02;;;;;;;12.85;5.15;;;;;20.80;97219.00;;;;8234736;28;20210;-70
2023/09/30 15:37:05;;;;;;;12.30;5.18;;;;;20.70;97225.00;;;;8243726;28;20206;-70
2023/09/30 15:41:08;;;;;;;11.20;5.15;;;;;20.60;97214.00;;;;8237722;28;20207;-70
2023/09/30 15:45:12;;;;;;;9.30;4.75;;;;;20.60;97212.00;;;;8233522;28;20211;-71
2023/09/30 15:49:17;;;;;;;14.02;5.35;;;;;20.50;97205.00;;;;8246940;28;20235;-70
2023/09/30 15:53:22;;;;;;;10.55;4.60;;;;;20.30;97205.00;;;;8235583;28;20664;-67
2023/09/30 15:57:25;;;;;;;13.68;5.35;;;;;20.00;97214.00;;;;8240295;28;20206;-70
2023/09/30 16:01:29;;;;;;;11.02;4.70;;;;;19.90;97211.00;;;;8242202;28;20230;-68
2023/09/30 16:05:36;;;;;;;11.30;4.97;;;;;19.60;97221.00;;;;8245374;28;20205;-70
2023/09/30 16:09:40;;;;;;;11.23;4.70;;;;;19.40;97206.00;;;;8242871;28;20231;-70
2023/09/30 16:13:43;;;;;;;13.73;5.18;;;;;19.30;97220.00;;;;8239498;28;20206;-69
2023/09/30 16:17:46;;;;;;;13.32;4.97;;;;;19.00;97227.00;;;;8250293;28;20199;-68
2023/09/30 16:21:51;;;;;;;14.65;5.47;;;;;18.80;97230.00;;;;8251030;28;20233;-68
2023/09/30 16:25:54;;;;;;;10.63;5.07;;;;;18.50;97231.00;;;;8248912;28;20230;-68
2023/09/30 16:29:58;;;;;;;11.57;4.70;;;;;18.20;97230.00;;;;8242627;28;20226;-69
2023/09/30 16:34:01;;;;;;;15.93;5.43;;;;;18.00;97222.00;;;;8242350;28;20784;-68
2023/09/30 16:38:05;;;;;;;13.35;4.82;;;;;17.70;97223.00;;;;8246255;28;20210;-68
2023/09/30 16:42:09;;;;;;;19.00;5.60;;;;;17.50;97221.00;;;;8244932;28;20195;-68
2023/09/30 16:46:13;;;;;;;22.60;5.57;;;;;17.30;97229.00;;;;8245520;28;20222;-68
2023/09/30 16:50:17;;;;;;;10.57;4.82;;;;;17.00;97225.00;;;;8238087;28;20246;-68
2023/09/30 16:54:23;;;;;;;13.68;5.35;;;;;16.80;97222.00;;;;8245475;28;20223;-68
2023/09/30 16:58:26;;;;;;;15.70;5.82;;;;;16.60;97224.00;;;;8246525;28;20203;-68
2023/09/30 17:02:30;;;;;;;10.88;5.00;;;;;16.40;97224.00;;;;8243749;28;20272;-68
2023/09/30 17:06:34;;;;;;;17.50;5.32;;;;;16.10;97219.00;;;;8239813;28;20722;-68
2023/09/30 17:10:40;;;;;;;15.70;5.35;;;;;15.90;97226.00;;;;8244557;28;20200;-68
2023/09/30 17:14:45;;;;;;;15.68;6.20;;;;;15.70;97237.00;;;;8246779;28;20207;-68
2023/09/30 17:18:49;;;;;;;15.40;5.80;;;;;15.40;97236.00;;;;8242692;28;20201;-70
2023/09/30 17:22:53;;;;;;;14.27;5.32;;;;;15.30;97226.00;;;;8247202;28;20635;-70
2023/09/30 17:26:57;;;;;;;14.20;6.18;;;;;15.10;97237.00;;;;8244180;28;20692;-70
2023/09/30 17:31:03;;;;;;;23.30;9.60;;;;;15.00;97233.00;;;;8253311;28;20206;-70
2023/09/30 17:35:07;;;;;;;21.33;7.28;;;;;14.80;97232.00;;;;8243942;28;20199;-69
2023/09/30 17:39:11;;;;;;;23.38;6.38;;;;;14.70;97231.00;;;;8248959;28;20989;-68
2023/09/30 17:43:15;;;;;;;28.73;10.98;;;;;14.60;97230.00;;;;8247758;28;20207;-68
2023/09/30 17:47:20;;;;;;;29.40;12.27;;;;;14.50;97234.00;;;;8246868;28;21881;-69
2023/09/30 17:51:23;;;;;;;40.90;15.68;;;;;14.50;97226.00;;;;8249606;28;20199;-68
2023/09/30 17:55:26;;;;;;;27.17;9.30;;;;;14.40;97228.00;;;;8247194;28;20738;-69
2023/09/30 17:59:33;;;;;;;55.80;22.20;;;;;14.30;97239.00;;;;8248463;28;21077;-69
2023/09/30 18:03:36;;;;;;;56.67;24.00;;;;;14.20;97235.00;;;;8248709;28;20313;-68
2023/09/30 18:07:39;;;;;;;27.63;11.32;;;;;14.10;97239.00;;;;8252528;28;20226;-68
2023/09/30 18:11:42;;;;;;;28.20;11.45;;;;;14.00;97233.00;;;;8252487;28;20290;-69
2023/09/30 18:15:47;;;;;;;19.05;8.52;;;;;13.90;97234.00;;;;8249061;28;20195;-68
2023/09/30 18:19:50;;;;;;;32.58;12.52;;;;;13.80;97241.00;;;;8250463;28;20750;-68
2023/09/30 18:23:53;;;;;;;29.77;13.25;;;;;13.70;97242.00;;;;8248421;28;21108;-68
2023/09/30 18:27:56;;;;;;;23.65;10.40;;;;;13.60;97247.00;;;;8255157;28;20237;-66
2023/09/30 18:32:01;;;;;;;31.15;10.93;;;;;13.40;97252.00;;;;8245603;28;20202;-66
2023/09/30 18:36:08;;;;;;;23.13;8.75;;;;;13.30;97265.00;;;;8238105;28;20649;-69
2023/09/30 18:40:12;;;;;;;16.08;8.13;;;;;13.10;97260.00;;;;8238978;28;20953;-69
2023/09/30 18:44:15;;;;;;;21.90;8.63;;;;;12.90;97256.00;;;;8235057;28;20216;-69
2023/09/30 18:48:19;;;;;;;21.90;7.85;;;;;12.80;97264.00;;;;8229362;28;20245;-69
2023/09/30 18:52:22;;;;;;;18.17;8.18;;;;;12.60;97257.00;;;;8231900;28;20969;-70
2023/09/30 18:56:25;;;;;;;21.35;8.38;;;;;12.50;97258.00;;;;8234216;28;20206;-68
2023/09/30 19:00:31;;;;;;;20.13;8.90;;;;;12.50;97264.00;;;;8245297;28;20906;-68
2023/09/30 19:04:36;;;;;;;21.13;8.40;;;;;12.40;97265.00;;;;8249643;28;20234;-68
2023/09/30 19:08:42;;;;;;;19.70;7.80;;;;;12.30;97266.00;;;;8246962;28;20304;-68
2023/09/30 19:12:45;;;;;;;18.10;8.05;;;;;12.20;97265.00;;;;8248844;28;20198;-68
2023/09/30 19:16:48;;;;;;;21.60;9.85;;;;;12.20;97264.00;;;;8244997;28;20202;-68
2023/09/30 19:20:53;;;;;;;15.20;8.38;;;;;12.20;97264.00;;;;8245187;28;20699;-68
2023/09/30 19:24:56;;;;;;;20.17;8.25;;;;;12.10;97263.00;;;;8247824;28;20824;-68
2023/09/30 19:29:01;;;;;;;18.35;8.32;;;;;12.00;97263.00;;;;8254910;28;20281;-68
2023/09/30 19:33:05;;;;;;;18.65;7.50;;;;;11.90;97259.00;;;;8243465;28;20675;-69
2023/09/30 19:37:09;;;;;;;18.25;7.80;;;;;11.80;97258.00;;;;8245548;28;20254;-68
2023/09/30 19:41:16;;;;;;;18.38;7.95;;;;;11.70;97260.00;;;;8248791;28;20203;-68
2023/09/30 19:45:19;;;;;;;24.58;9.45;;;;;11.60;97260.00;;;;8238717;28;20235;-68
2023/09/30 19:49:22;;;;;;;20.77;8.80;;;;;11.60;97267.00;;;;8238877;28;20788;-68
2023/09/30 19:53:27;;;;;;;19.27;9.32;;;;;11.60;97268.00;;;;8239793;28;20234;-68
2023/09/30 19:57:31;;;;;;;21.52;8.55;;;;;11.60;97270.00;;;;8244994;28;20294;-68
2023/09/30 20:01:35;;;;;;;21.42;9.13;;;;;11.60;97265.00;;;;8239579;28;20205;-68
2023/09/30 20:05:38;;;;;;;20.10;8.50;;;;;11.60;97268.00;;;;8236254;28;20259;-68
2023/09/30 20:09:43;;;;;;;16.95;7.50;;;;;11.50;97269.00;;;;8234556;28;20242;-68
2023/09/30 20:13:47;;;;;;;19.67;8.90;;;;;11.40;97266.00;;;;8243821;28;20199;-68